createdAt,value
2019-02-23T00:00:47.992Z,103215.72
2019-02-23T00:03:17.766Z,103217.90
2019-02-23T00:05:47.465Z,103205.73
2019-02-23T00:08:17.983Z,103211.39
2019-02-23T00:10:47.780Z,103206.60
2019-02-23T00:13:17.123Z,103207.58
2019-02-23T00:15:46.796Z,103207.66
2019-02-23T00:18:16.508Z,103204.97
2019-02-23T00:20:46.310Z,103214.33
2019-02-23T00:23:15.830Z,103214.77
2019-02-23T00:25:45.160Z,103211.24
2019-02-23T00:28:14.519Z,103216.53
2019-02-23T00:30:43.855Z,103221.80
2019-02-23T00:33:13.183Z,103225.31
2019-02-23T00:35:42.518Z,103228.36
2019-02-23T00:38:12.165Z,103224.41
2019-02-23T00:40:41.494Z,103237.94
2019-02-23T00:43:10.832Z,103245.75
2019-02-23T00:45:40.653Z,103247.06
2019-02-23T00:48:10.000Z,103241.45
2019-02-23T00:50:39.730Z,103249.30
2019-02-23T00:53:09.071Z,103247.55
2019-02-23T00:55:38.396Z,103244.95
2019-02-23T00:58:07.729Z,103240.15
2019-02-23T01:00:37.103Z,103239.77
2019-02-23T01:03:06.854Z,103238.88
2019-02-23T01:05:36.567Z,103232.72
2019-02-23T01:08:05.932Z,103228.36
2019-02-23T01:10:35.670Z,103223.59
2019-02-23T01:13:05.503Z,103221.97
2019-02-23T01:15:35.022Z,103222.75
2019-02-23T01:18:04.702Z,103228.83
2019-02-23T01:20:34.040Z,103225.83
2019-02-23T01:23:03.391Z,103244.13
2019-02-23T01:25:33.104Z,103254.22
2019-02-23T01:28:02.446Z,103251.61
2019-02-23T01:30:31.802Z,103242.45
2019-02-23T01:33:02.252Z,103236.75
2019-02-23T01:35:31.572Z,103229.86
2019-02-23T01:38:01.250Z,103228.14
2019-02-23T01:40:30.577Z,103230.31
2019-02-23T01:42:59.923Z,103229.03
2019-02-23T01:45:29.554Z,103225.52
2019-02-23T01:47:58.899Z,103227.75
2019-02-23T01:50:28.222Z,103223.40
2019-02-23T01:52:57.844Z,103217.77
2019-02-23T01:55:27.170Z,103205.62
2019-02-23T01:57:56.548Z,103217.83
2019-02-23T02:00:26.237Z,103211.73
2019-02-23T02:02:55.859Z,103213.94
2019-02-23T02:05:25.588Z,103208.25
2019-02-23T02:07:55.284Z,103198.72
2019-02-23T02:10:25.192Z,103198.73
2019-02-23T02:12:54.938Z,103190.06
2019-02-23T02:15:24.328Z,103183.05
2019-02-23T02:17:53.660Z,103175.70
2019-02-23T02:20:23.013Z,103171.73
2019-02-23T02:22:52.374Z,103168.30
2019-02-23T02:25:22.122Z,103169.98
2019-02-23T02:27:51.838Z,103156.09
2019-02-23T02:30:21.555Z,103140.41
2019-02-23T02:32:50.930Z,103123.41
2019-02-23T02:35:20.248Z,103112.09
2019-02-23T02:37:49.957Z,103117.34
2019-02-23T02:40:19.300Z,103126.34
2019-02-23T02:42:48.827Z,103131.16
2019-02-23T02:45:18.456Z,103143.78
2019-02-23T02:47:48.171Z,103151.67
2019-02-23T02:50:24.253Z,103156.03
2019-02-23T02:52:48.760Z,103164.27
2019-02-23T02:55:18.406Z,103164.67
2019-02-23T02:57:47.776Z,103162.48
2019-02-23T03:00:17.095Z,103156.30
2019-02-23T03:02:46.718Z,103159.43
2019-02-23T03:05:16.431Z,103154.18
2019-02-23T03:07:45.755Z,103158.53
2019-02-23T03:10:15.442Z,103171.59
2019-02-23T03:12:44.785Z,103172.88
2019-02-23T03:15:14.440Z,103153.22
2019-02-23T03:17:44.059Z,103162.39
2019-02-23T03:20:13.393Z,103155.83
2019-02-23T03:22:43.068Z,103151.88
2019-02-23T03:25:12.396Z,103144.13
2019-02-23T03:27:42.075Z,103146.34
2019-02-23T03:30:12.203Z,103153.71
2019-02-23T03:32:41.497Z,103151.62
2019-02-23T03:35:10.849Z,103145.58
2019-02-23T03:37:40.241Z,103142.50
2019-02-23T03:40:10.086Z,103149.45
2019-02-23T03:42:39.696Z,103148.58
2019-02-23T03:45:09.023Z,103142.05
2019-02-23T03:47:38.711Z,103142.02
2019-02-23T03:50:08.672Z,103147.67
2019-02-23T03:52:38.353Z,103136.84
2019-02-23T03:55:07.675Z,103122.98
2019-02-23T03:57:37.001Z,103137.77
2019-02-23T04:00:10.227Z,103130.03
2019-02-23T04:02:39.581Z,103128.75
2019-02-23T04:05:08.934Z,103121.80
2019-02-23T04:07:38.646Z,103125.30
2019-02-23T04:10:08.900Z,103134.41
2019-02-23T04:12:38.577Z,103145.29
2019-02-23T04:15:08.754Z,103140.96
2019-02-23T04:17:38.096Z,103132.73
2019-02-23T04:20:08.711Z,103125.78
2019-02-23T04:22:38.370Z,103121.48
2019-02-23T04:25:09.246Z,103125.86
2019-02-23T04:27:38.614Z,103130.59
2019-02-23T04:30:09.420Z,103128.02
2019-02-23T04:32:39.119Z,103113.72
2019-02-23T04:35:09.124Z,103129.37
2019-02-23T04:37:38.551Z,103131.09
2019-02-23T04:40:08.673Z,103134.61
2019-02-23T04:42:38.339Z,103152.91
2019-02-23T04:45:08.965Z,103131.20
2019-02-23T04:47:38.708Z,103118.13
2019-02-23T04:50:11.021Z,103115.95
2019-02-23T04:52:40.658Z,103105.95
2019-02-23T04:55:10.434Z,103088.13
2019-02-23T04:57:39.818Z,103082.53
2019-02-23T05:00:16.549Z,103085.06
2019-02-23T05:02:46.255Z,103084.22
2019-02-23T05:05:15.998Z,103080.37
2019-02-23T05:07:45.823Z,103069.05
2019-02-23T05:10:15.521Z,103056.89
2019-02-23T05:12:45.208Z,103064.27
2019-02-23T05:15:14.914Z,103071.21
2019-02-23T05:17:44.278Z,103071.22
2019-02-23T05:20:13.608Z,103076.86
2019-02-23T05:22:42.945Z,103071.22
2019-02-23T05:25:12.627Z,103068.19
2019-02-23T05:27:42.333Z,103081.20
2019-02-23T05:30:13.117Z,103092.06
2019-02-23T05:32:42.438Z,103089.45
2019-02-23T05:35:13.480Z,103102.01
2019-02-23T05:37:43.215Z,103120.17
2019-02-23T05:40:13.528Z,103119.05
2019-02-23T05:42:42.963Z,103108.64
2019-02-23T05:45:12.670Z,103110.34
2019-02-23T05:47:42.345Z,103119.09
2019-02-23T05:50:11.678Z,103113.12
2019-02-23T05:52:41.029Z,103118.92
2019-02-23T05:55:10.392Z,103122.05
2019-02-23T05:57:39.715Z,103124.25
2019-02-23T06:00:13.060Z,103115.63
2019-02-23T06:02:44.999Z,103115.60
2019-02-23T06:05:13.758Z,103123.41
2019-02-23T06:07:43.105Z,103135.16
2019-02-23T06:10:12.790Z,103142.17
2019-02-23T06:12:42.138Z,103132.95
2019-02-23T06:15:13.653Z,103131.70
2019-02-23T06:17:43.358Z,103133.02
2019-02-23T06:20:12.703Z,103133.75
2019-02-23T06:22:42.067Z,103129.80
2019-02-23T06:25:11.466Z,103137.23
2019-02-23T06:27:40.820Z,103141.55
2019-02-23T06:30:13.003Z,103142.02
2019-02-23T06:32:42.394Z,103142.83
2019-02-23T06:35:11.941Z,103139.87
2019-02-23T06:37:41.281Z,103154.18
2019-02-23T06:40:12.283Z,103165.03
2019-02-23T06:42:41.625Z,103171.53
2019-02-23T06:45:13.313Z,103185.92
2019-02-23T06:47:42.674Z,103186.39
2019-02-23T06:50:12.086Z,103174.61
2019-02-23T06:52:41.951Z,103179.41
2019-02-23T06:55:11.473Z,103182.86
2019-02-23T06:57:40.910Z,103176.30
2019-02-23T07:00:14.965Z,103184.08
2019-02-23T07:02:44.773Z,103189.25
2019-02-23T07:05:14.103Z,103204.05
2019-02-23T07:07:43.826Z,103211.45
2019-02-23T07:10:15.342Z,103218.42
2019-02-23T07:12:44.674Z,103236.20
2019-02-23T07:15:14.324Z,103234.52
2019-02-23T07:17:44.047Z,103246.25
2019-02-23T07:20:13.874Z,103246.59
2019-02-23T07:22:43.196Z,103252.23
2019-02-23T07:25:12.877Z,103257.45
2019-02-23T07:27:42.570Z,103262.20
2019-02-23T07:30:14.963Z,103266.09
2019-02-23T07:32:44.363Z,103269.52
2019-02-23T07:35:13.705Z,103283.46
2019-02-23T07:37:43.074Z,103289.53
2019-02-23T07:40:15.886Z,103289.16
2019-02-23T07:42:45.235Z,103304.81
2019-02-23T07:45:14.903Z,103309.20
2019-02-23T07:47:44.255Z,103310.86
2019-02-23T07:50:17.432Z,103300.80
2019-02-23T07:52:47.099Z,103271.09
2019-02-23T07:55:16.448Z,103265.86
2019-02-23T07:57:45.942Z,103270.14
2019-02-23T08:00:15.969Z,103280.97
2019-02-23T08:02:45.627Z,103291.00
2019-02-23T08:05:14.975Z,103287.11
2019-02-23T08:07:44.636Z,103283.98
2019-02-23T08:10:14.244Z,103284.83
2019-02-23T08:12:44.068Z,103290.49
2019-02-23T08:15:13.772Z,103284.43
2019-02-23T08:17:43.115Z,103291.88
2019-02-23T08:20:14.025Z,103292.31
2019-02-23T08:22:43.713Z,103288.75
2019-02-23T08:25:15.082Z,103293.88
2019-02-23T08:27:44.422Z,103286.02
2019-02-23T08:30:16.938Z,103293.98
2019-02-23T08:32:46.638Z,103290.86
2019-02-23T08:35:16.359Z,103294.70
2019-02-23T08:37:45.713Z,103295.61
2019-02-23T08:40:17.534Z,103309.97
2019-02-23T08:42:47.182Z,103319.02
2019-02-23T08:45:16.498Z,103330.83
2019-02-23T08:47:46.121Z,103335.95
2019-02-23T08:50:16.569Z,103338.48
2019-02-23T08:52:49.844Z,103338.75
2019-02-23T08:55:16.972Z,103327.70
2019-02-23T08:57:46.314Z,103316.25
2019-02-23T09:00:18.128Z,103307.31
2019-02-23T09:02:47.458Z,103294.55
2019-02-23T09:05:16.779Z,103296.61
2019-02-23T09:07:46.363Z,103284.54
2019-02-23T09:10:16.302Z,103273.63
2019-02-23T09:12:45.676Z,103260.56
2019-02-23T09:15:15.059Z,103257.34
2019-02-23T09:17:44.661Z,103249.80
2019-02-23T09:20:14.056Z,103247.13
2019-02-23T09:22:43.644Z,103248.26
2019-02-23T09:25:13.262Z,103247.12
2019-02-23T09:27:42.574Z,103246.30
2019-02-23T09:30:13.990Z,103260.73
2019-02-23T09:32:43.643Z,103257.94
2019-02-23T09:35:13.068Z,103260.49
2019-02-23T09:37:42.471Z,103255.53
2019-02-23T09:40:20.831Z,103258.65
2019-02-23T09:42:50.193Z,103255.72
2019-02-23T09:45:19.523Z,103254.98
2019-02-23T09:47:49.189Z,103252.20
2019-02-23T09:50:18.641Z,103247.55
2019-02-23T09:52:48.282Z,103244.27
2019-02-23T09:55:17.940Z,103246.05
2019-02-23T09:57:47.300Z,103241.39
2019-02-23T10:00:16.653Z,103245.22
2019-02-23T10:02:46.251Z,103228.25
2019-02-23T10:05:15.904Z,103223.77
2019-02-23T10:07:45.243Z,103220.38
2019-02-23T10:10:14.826Z,103210.09
2019-02-23T10:12:44.439Z,103209.47
2019-02-23T10:15:14.030Z,103209.80
2019-02-23T10:17:43.357Z,103202.33
2019-02-23T10:20:16.480Z,103198.39
2019-02-23T10:22:46.105Z,103190.14
2019-02-23T10:25:15.676Z,103175.84
2019-02-23T10:27:45.351Z,103172.49
2019-02-23T10:30:16.594Z,103159.52
2019-02-23T10:32:46.031Z,103157.34
2019-02-23T10:35:15.598Z,103147.66
2019-02-23T10:37:44.909Z,103144.44
2019-02-23T10:40:14.601Z,103140.16
2019-02-23T10:42:44.210Z,103136.42
2019-02-23T10:45:14.491Z,103132.67
2019-02-23T10:47:44.111Z,103125.05
2019-02-23T10:50:15.445Z,103122.84
2019-02-23T10:52:45.036Z,103117.30
2019-02-23T10:55:15.719Z,103119.74
2019-02-23T10:57:45.317Z,103122.70
2019-02-23T11:00:20.856Z,103120.55
2019-02-23T11:02:50.185Z,103108.88
2019-02-23T11:05:19.976Z,103103.86
2019-02-23T11:07:49.522Z,103109.90
2019-02-23T11:10:19.129Z,103106.67
2019-02-23T11:12:48.709Z,103108.58
2019-02-23T11:15:19.393Z,103113.04
2019-02-23T11:17:48.979Z,103115.27
2019-02-23T11:20:18.634Z,103100.97
2019-02-23T11:22:47.958Z,103101.82
2019-02-23T11:25:17.273Z,103102.98
2019-02-23T11:27:46.858Z,103099.87
2019-02-23T11:30:16.806Z,103093.50
2019-02-23T11:32:46.137Z,103089.52
2019-02-23T11:35:17.612Z,103073.83
2019-02-23T11:37:47.497Z,103069.12
2019-02-23T11:40:17.618Z,103068.71
2019-02-23T11:42:47.218Z,103062.83
2019-02-23T11:45:16.557Z,103058.48
2019-02-23T11:47:46.181Z,103069.09
2019-02-23T11:50:15.588Z,103067.59
2019-02-23T11:52:44.901Z,103059.33
2019-02-23T11:55:14.467Z,103054.56
2019-02-23T11:57:43.786Z,103059.66
2019-02-23T12:00:14.698Z,103051.78
2019-02-23T12:02:51.982Z,103043.02
2019-02-23T12:05:15.054Z,103039.44
2019-02-23T12:07:44.641Z,103034.95
2019-02-23T12:10:17.748Z,103030.45
2019-02-23T12:12:47.120Z,103029.63
2019-02-23T12:15:16.441Z,103033.46
2019-02-23T12:17:46.021Z,103030.44
2019-02-23T12:20:15.393Z,103034.58
2019-02-23T12:22:44.706Z,103021.19
2019-02-23T12:25:16.180Z,103019.02
2019-02-23T12:27:45.380Z,103014.98
2019-02-23T12:30:14.985Z,103011.30
2019-02-23T12:32:44.587Z,103005.02
2019-02-23T12:35:14.242Z,103010.70
2019-02-23T12:37:43.886Z,102997.45
2019-02-23T12:40:13.231Z,103004.23
2019-02-23T12:42:42.548Z,103002.96
2019-02-23T12:45:13.736Z,103009.48
2019-02-23T12:47:43.081Z,103020.44
2019-02-23T12:50:13.480Z,103027.43
2019-02-23T12:52:42.907Z,103027.56
2019-02-23T12:55:12.999Z,103028.16
2019-02-23T12:57:42.600Z,103031.13
2019-02-23T13:00:17.167Z,103034.41
2019-02-23T13:02:46.772Z,103030.17
2019-02-23T13:05:16.079Z,103032.72
2019-02-23T13:07:45.669Z,103027.97
2019-02-23T13:10:15.087Z,103024.33
2019-02-23T13:13:04.027Z,103018.95
2019-02-23T13:15:40.342Z,103021.28
2019-02-23T13:18:40.157Z,103021.23
2019-02-23T13:21:35.474Z,103027.30
2019-02-23T13:24:28.194Z,102966.88
2019-02-23T13:27:15.334Z,103037.84
2019-02-23T13:30:10.664Z,103038.23
2019-02-23T13:33:05.521Z,103031.41
2019-02-23T13:36:18.409Z,103030.70
2019-02-23T13:39:09.275Z,103025.11
2019-02-23T13:42:07.779Z,103028.48
2019-02-23T13:45:01.171Z,103035.36
2019-02-23T13:48:12.727Z,103033.08
2019-02-23T13:51:16.806Z,103025.52
2019-02-23T13:54:25.815Z,103031.62
2019-02-23T13:57:20.481Z,103025.17
2019-02-23T14:00:34.204Z,103025.14
2019-02-23T14:03:20.335Z,103039.27
2019-02-23T14:06:20.130Z,103031.80
2019-02-23T14:09:31.597Z,103020.02
2019-02-23T14:12:35.846Z,103013.47
2019-02-23T14:15:15.944Z,103012.20
2019-02-23T14:17:56.187Z,102990.62
2019-02-23T14:20:48.221Z,102987.59
2019-02-23T14:23:34.354Z,102980.69
2019-02-23T14:26:34.003Z,102976.14
2019-02-23T14:29:17.098Z,102969.84
2019-02-23T14:31:56.868Z,102956.39
2019-02-23T14:34:36.970Z,102956.30
2019-02-23T14:37:32.062Z,102955.15
2019-02-23T14:40:09.103Z,102956.49
2019-02-23T14:42:43.573Z,102955.48
2019-02-23T14:45:46.062Z,102946.36
2019-02-23T14:48:44.634Z,102955.59
2019-02-23T14:51:41.203Z,102952.72
2019-02-23T14:54:27.004Z,102954.78
2019-02-23T14:57:06.355Z,102954.97
2019-02-23T14:59:58.410Z,102955.61
2019-02-23T15:02:53.706Z,102946.17
2019-02-23T15:06:10.164Z,102951.00
2019-02-23T15:09:12.084Z,102940.51
2019-02-23T15:12:16.736Z,102939.64
2019-02-23T15:15:23.932Z,102941.83
2019-02-23T15:18:01.356Z,102941.55
2019-02-23T15:20:47.549Z,102925.56
2019-02-23T15:23:36.868Z,102919.67
2019-02-23T15:26:32.077Z,102909.97
2019-02-23T15:29:39.112Z,102917.21
2019-02-23T15:32:42.027Z,102918.73
2019-02-23T15:35:30.946Z,102921.21
2019-02-23T15:38:31.838Z,102861.61
2019-02-23T15:41:34.185Z,102945.39
2019-02-23T15:44:36.425Z,102939.17
2019-02-23T15:47:36.356Z,102930.39
2019-02-23T15:50:13.086Z,102928.61
2019-02-23T15:52:36.896Z,102929.06
2019-02-23T15:55:07.760Z,102927.08
2019-02-23T15:57:37.336Z,102917.72
2019-02-23T16:00:08.594Z,102927.53
2019-02-23T16:02:38.162Z,102926.79
2019-02-23T16:05:07.482Z,102924.48
2019-02-23T16:07:36.821Z,102919.09
2019-02-23T16:10:06.478Z,102920.86
2019-02-23T16:12:36.086Z,102922.13
2019-02-23T16:15:06.315Z,102924.18
2019-02-23T16:17:36.176Z,102911.69
2019-02-23T16:20:08.612Z,102922.29
2019-02-23T16:22:38.302Z,102920.67
2019-02-23T16:25:08.136Z,102926.03
2019-02-23T16:27:37.746Z,102929.61
2019-02-23T16:30:10.916Z,102929.03
2019-02-23T16:32:40.527Z,102937.05
2019-02-23T16:35:09.854Z,102933.71
2019-02-23T16:37:39.511Z,102934.80
2019-02-23T16:40:09.391Z,102931.87
2019-02-23T16:42:38.712Z,102938.92
2019-02-23T16:45:09.842Z,102939.81
2019-02-23T16:47:39.479Z,102940.23
2019-02-23T16:50:09.172Z,102941.14
2019-02-23T16:52:39.569Z,102942.83
2019-02-23T16:55:09.168Z,102945.02
2019-02-23T16:57:38.486Z,102941.81
2019-02-23T17:00:10.506Z,102942.94
2019-02-23T17:02:39.838Z,102941.61
2019-02-23T17:05:09.205Z,102946.48
2019-02-23T17:07:38.602Z,102945.16
2019-02-23T17:10:08.485Z,102950.04
2019-02-23T17:12:38.117Z,102948.42
2019-02-23T17:15:10.533Z,102946.86
2019-02-23T17:17:39.261Z,102945.66
2019-02-23T17:20:08.894Z,102942.70
2019-02-23T17:22:38.505Z,102952.45
2019-02-23T17:25:08.209Z,102950.86
2019-02-23T17:27:37.809Z,102954.56
2019-02-23T17:30:09.257Z,102955.57
2019-02-23T17:32:38.877Z,102950.51
2019-02-23T17:35:08.218Z,102954.39
2019-02-23T17:37:37.991Z,102947.25
2019-02-23T17:40:08.677Z,102944.55
2019-02-23T17:42:38.297Z,102937.67
2019-02-23T17:45:11.050Z,102937.73
2019-02-23T17:47:40.413Z,102930.25
2019-02-23T17:50:10.233Z,102919.86
2019-02-23T17:52:39.941Z,102925.19
2019-02-23T17:55:09.838Z,102924.45
2019-02-23T17:57:39.155Z,102930.62
2019-02-23T18:00:13.592Z,102944.30
2019-02-23T18:02:42.998Z,102938.67
2019-02-23T18:05:12.338Z,102938.92
2019-02-23T18:07:41.652Z,102950.26
2019-02-23T18:10:10.965Z,102940.69
2019-02-23T18:12:40.568Z,102943.28
2019-02-23T18:15:10.909Z,102939.35
2019-02-23T18:17:40.507Z,102929.20
2019-02-23T18:20:13.261Z,102931.59
2019-02-23T18:22:42.891Z,102911.56
2019-02-23T18:25:12.507Z,102944.80
2019-02-23T18:27:42.330Z,102938.87
2019-02-23T18:30:14.077Z,102936.68
2019-02-23T18:32:43.369Z,102948.81
2019-02-23T18:35:12.978Z,102945.47
2019-02-23T18:37:42.701Z,102940.30
2019-02-23T18:40:12.044Z,102946.41
2019-02-23T18:42:43.351Z,102941.21
2019-02-23T18:45:12.686Z,102948.72
2019-02-23T18:47:42.360Z,102953.02
2019-02-23T18:50:11.702Z,102945.91
2019-02-23T18:52:41.081Z,102943.18
2019-02-23T18:55:10.755Z,102939.17
2019-02-23T18:57:40.342Z,102942.85
2019-02-23T19:00:12.663Z,102935.89
2019-02-23T19:02:42.239Z,102935.50
2019-02-23T19:05:13.398Z,102934.38
2019-02-23T19:07:42.736Z,102929.23
2019-02-23T19:10:14.271Z,102923.95
2019-02-23T19:12:43.948Z,102927.03
2019-02-23T19:15:14.583Z,102922.25
2019-02-23T19:17:44.445Z,102925.14
2019-02-23T19:20:15.446Z,102916.98
2019-02-23T19:22:44.777Z,102918.03
2019-02-23T19:25:14.117Z,102917.39
2019-02-23T19:27:43.767Z,102913.52
2019-02-23T19:30:15.898Z,102915.00
2019-02-23T19:32:45.533Z,102908.59
2019-02-23T19:35:15.243Z,102908.18
2019-02-23T19:37:44.954Z,102911.40
2019-02-23T19:40:14.301Z,102918.94
2019-02-23T19:42:43.962Z,102914.66
2019-02-23T19:45:13.468Z,102908.09
2019-02-23T19:47:43.478Z,102907.06
2019-02-23T19:50:24.092Z,102914.50
2019-02-23T19:52:53.758Z,102905.05
2019-02-23T19:55:23.367Z,102902.22
2019-02-23T19:57:52.687Z,102895.97
2019-02-23T20:00:22.382Z,102902.22
2019-02-23T20:02:51.706Z,102900.99
2019-02-23T20:05:21.375Z,102901.08
2019-02-23T20:07:52.639Z,102902.58
2019-02-23T20:10:22.171Z,102897.69
2019-02-23T20:12:51.833Z,102901.20
2019-02-23T20:15:21.457Z,102892.94
2019-02-23T20:17:50.768Z,102898.11
2019-02-23T20:20:20.111Z,102891.37
2019-02-23T20:22:49.427Z,102900.22
2019-02-23T20:25:18.746Z,102899.73
2019-02-23T20:27:48.466Z,102907.22
2019-02-23T20:30:17.784Z,102899.72
2019-02-23T20:32:47.091Z,102893.41
2019-02-23T20:35:16.442Z,102895.36
2019-02-23T20:37:46.088Z,102906.14
2019-02-23T20:40:15.775Z,102907.51
2019-02-23T20:42:45.397Z,102905.33
2019-02-23T20:45:15.112Z,102901.66
2019-02-23T20:47:44.804Z,102898.42
2019-02-23T20:50:14.124Z,102892.85
2019-02-23T20:52:43.819Z,102888.57
2019-02-23T20:55:13.119Z,102890.75
2019-02-23T20:57:42.719Z,102884.53
2019-02-23T21:00:12.828Z,102884.27
2019-02-23T21:02:42.226Z,102882.69
2019-02-23T21:05:13.838Z,102883.58
2019-02-23T21:07:43.520Z,102883.08
2019-02-23T21:10:12.862Z,102876.20
2019-02-23T21:12:42.522Z,102873.27
2019-02-23T21:15:12.441Z,102874.30
2019-02-23T21:17:42.262Z,102870.19
2019-02-23T21:20:12.376Z,102865.14
2019-02-23T21:22:41.879Z,102861.36
2019-02-23T21:25:11.597Z,102857.50
2019-02-23T21:27:41.309Z,102859.77
2019-02-23T21:30:11.659Z,102867.05
2019-02-23T21:32:41.330Z,102858.41
2019-02-23T21:35:11.044Z,102868.73
2019-02-23T21:37:40.754Z,102867.30
2019-02-23T21:40:12.079Z,102859.63
2019-02-23T21:42:41.662Z,102863.96
2019-02-23T21:45:11.329Z,102867.58
2019-02-23T21:47:41.022Z,102869.69
2019-02-23T21:50:11.380Z,102874.54
2019-02-23T21:52:41.087Z,102866.63
2019-02-23T21:55:10.801Z,102863.19
2019-02-23T21:57:40.098Z,102854.31
2019-02-23T22:00:10.694Z,102854.44
2019-02-23T22:02:40.293Z,102854.31
2019-02-23T22:05:12.417Z,102852.77
2019-02-23T22:07:40.667Z,102847.31
2019-02-23T22:10:10.553Z,102846.05
2019-02-23T22:12:40.312Z,102853.52
2019-02-23T22:15:09.989Z,102859.72
2019-02-23T22:17:39.451Z,102857.09
2019-02-23T22:20:09.288Z,102861.89
2019-02-23T22:22:38.627Z,102865.01
2019-02-23T22:25:08.408Z,102860.51
2019-02-23T22:27:37.746Z,102862.24
2019-02-23T22:30:08.577Z,102863.20
2019-02-23T22:32:37.891Z,102860.67
2019-02-23T22:35:07.395Z,102860.72
2019-02-23T22:37:37.080Z,102861.95
2019-02-23T22:40:07.790Z,102861.98
2019-02-23T22:42:37.152Z,102866.92
2019-02-23T22:45:08.659Z,102865.12
2019-02-23T22:47:38.000Z,102864.69
2019-02-23T22:50:09.086Z,102867.30
2019-02-23T22:52:38.515Z,102862.41
2019-02-23T22:55:07.833Z,102857.00
2019-02-23T22:57:40.596Z,102861.11
2019-02-23T23:00:15.449Z,102854.61
2019-02-23T23:02:44.795Z,102857.84
2019-02-23T23:05:15.034Z,102863.45
2019-02-23T23:07:44.650Z,102859.14
2019-02-23T23:10:14.037Z,102851.64
2019-02-23T23:12:43.752Z,102849.46
2019-02-23T23:15:13.645Z,102853.37
2019-02-23T23:17:43.045Z,102851.73
2019-02-23T23:20:12.688Z,102851.28
2019-02-23T23:22:42.121Z,102847.59
2019-02-23T23:25:11.457Z,102843.58
2019-02-23T23:27:48.943Z,102847.81
2019-02-23T23:30:12.162Z,102851.16
2019-02-23T23:32:41.812Z,102849.80
2019-02-23T23:35:11.450Z,102851.98
2019-02-23T23:37:40.895Z,102854.15
2019-02-23T23:40:10.229Z,102848.06
2019-02-23T23:42:39.866Z,102852.50
2019-02-23T23:45:09.686Z,102858.69
2019-02-23T23:47:39.381Z,102854.31
2019-02-23T23:50:09.107Z,102845.08
2019-02-23T23:52:38.685Z,102837.29
2019-02-23T23:55:08.003Z,102840.42
2019-02-23T23:57:37.329Z,102840.25
